createdAt,value
2023-05-25T00:01:39.274Z,97812.78
2023-05-25T00:04:06.003Z,97816.22
2023-05-25T00:06:32.972Z,97653.69
2023-05-25T00:08:59.573Z,97806.84
2023-05-25T00:11:26.786Z,97803.44
2023-05-25T00:13:53.426Z,97787.78
2023-05-25T00:16:20.073Z,97814.50
2023-05-25T00:18:48.517Z,97809.41
2023-05-25T00:21:16.060Z,97805.13
2023-05-25T00:23:43.133Z,97811.09
2023-05-25T00:26:09.738Z,97800.88
2023-05-25T00:28:36.280Z,97806.84
2023-05-25T00:31:02.937Z,97793.91
2023-05-25T00:33:29.548Z,97806.84
2023-05-25T00:35:57.270Z,97801.75
2023-05-25T00:38:23.957Z,97814.50
2023-05-25T00:40:55.276Z,97811.09
2023-05-25T00:43:21.866Z,97806.00
2023-05-25T00:46:17.269Z,97801.75
2023-05-25T00:48:44.049Z,97801.75
2023-05-25T00:51:10.960Z,97779.06
2023-05-25T00:53:37.698Z,97811.16
2023-05-25T00:56:13.898Z,97808.56
2023-05-25T00:58:41.645Z,97811.97
2023-05-25T01:01:12.372Z,97806.06
2023-05-25T01:03:40.047Z,97804.28
2023-05-25T01:06:08.751Z,97806.91
2023-05-25T01:08:35.398Z,97800.94
2023-05-25T01:11:02.146Z,97802.63
2023-05-25T01:13:28.694Z,97806.84
2023-05-25T01:15:55.378Z,97811.16
2023-05-25T01:18:21.938Z,97807.72
2023-05-25T01:20:58.116Z,97806.91
2023-05-25T01:23:28.419Z,97812.00
2023-05-25T01:25:56.335Z,97805.88
2023-05-25T01:28:32.587Z,97795.66
2023-05-25T01:30:59.133Z,97799.19
2023-05-25T01:33:26.324Z,97794.78
2023-05-25T01:35:52.914Z,97805.19
2023-05-25T01:38:19.488Z,97815.38
2023-05-25T01:40:46.188Z,97812.84
2023-05-25T01:43:12.849Z,97812.84
2023-05-25T01:45:39.478Z,97817.94
2023-05-25T01:48:32.914Z,97822.22
2023-05-25T01:51:01.275Z,97820.50
2023-05-25T01:53:38.906Z,97816.09
2023-05-25T01:56:08.732Z,97829.03
2023-05-25T01:58:43.764Z,97803.91
2023-05-25T02:01:10.653Z,97829.84
2023-05-25T02:03:38.190Z,97834.16
2023-05-25T02:06:04.798Z,97821.16
2023-05-25T02:08:31.515Z,97823.06
2023-05-25T02:10:58.070Z,97826.50
2023-05-25T02:13:24.656Z,97823.94
2023-05-25T02:15:51.323Z,97829.03
2023-05-25T02:18:17.943Z,97829.78
2023-05-25T02:20:45.081Z,97818.72
2023-05-25T02:23:11.685Z,97823.81
2023-05-25T02:25:38.237Z,97819.50
2023-05-25T02:28:05.096Z,97822.94
2023-05-25T02:30:31.714Z,97819.50
2023-05-25T02:32:58.255Z,97811.91
2023-05-25T02:35:24.807Z,97812.72
2023-05-25T02:37:51.395Z,97808.50
2023-05-25T02:40:18.058Z,97802.56
2023-05-25T02:42:44.605Z,97799.97
2023-05-25T02:45:11.404Z,97800.84
2023-05-25T02:47:38.014Z,97794.91
2023-05-25T02:50:04.922Z,97794.03
2023-05-25T02:52:32.666Z,97794.03
2023-05-25T02:54:59.260Z,97804.25
2023-05-25T02:57:25.976Z,97799.13
2023-05-25T02:59:52.753Z,97808.50
2023-05-25T03:02:21.087Z,97804.19
2023-05-25T03:04:49.882Z,97802.50
2023-05-25T03:07:16.445Z,97794.56
2023-05-25T03:09:43.022Z,97805.94
2023-05-25T03:12:09.581Z,97816.16
2023-05-25T03:14:36.102Z,97816.94
2023-05-25T03:17:03.027Z,97817.00
2023-05-25T03:19:29.713Z,97820.38
2023-05-25T03:21:56.644Z,97819.56
2023-05-25T03:24:23.211Z,97822.94
2023-05-25T03:26:49.735Z,97821.25
2023-05-25T03:29:16.277Z,97824.63
2023-05-25T03:31:42.874Z,97827.22
2023-05-25T03:34:09.489Z,97826.38
2023-05-25T03:36:37.489Z,97833.16
2023-05-25T03:39:04.084Z,97835.66
2023-05-25T03:41:30.865Z,97830.53
2023-05-25T03:43:57.414Z,97836.53
2023-05-25T03:46:24.049Z,97820.97
2023-05-25T03:48:50.641Z,97833.09
2023-05-25T03:51:17.209Z,97833.09
2023-05-25T03:53:43.747Z,97830.53
2023-05-25T03:56:10.451Z,97826.31
2023-05-25T03:58:37.022Z,97828.88
2023-05-25T04:01:05.237Z,97830.53
2023-05-25T04:03:33.156Z,97839.09
2023-05-25T04:06:00.560Z,97838.19
2023-05-25T04:08:28.742Z,97844.19
2023-05-25T04:10:56.123Z,97843.31
2023-05-25T04:13:22.694Z,97839.88
2023-05-25T04:15:50.222Z,97844.19
2023-05-25T04:18:16.922Z,97840.75
2023-05-25T04:20:43.557Z,97846.75
2023-05-25T04:23:10.142Z,97847.59
2023-05-25T04:25:37.564Z,97844.19
2023-05-25T04:28:04.152Z,97841.63
2023-05-25T04:30:31.506Z,97844.19
2023-05-25T04:33:02.703Z,97849.31
2023-05-25T04:35:31.654Z,97845.91
2023-05-25T04:38:00.648Z,97847.53
2023-05-25T04:40:28.057Z,97845.03
2023-05-25T04:42:55.869Z,97845.91
2023-05-25T04:45:23.893Z,97843.13
2023-05-25T04:47:50.640Z,97850.16
2023-05-25T04:50:17.262Z,97861.19
2023-05-25T04:52:43.790Z,97860.31
2023-05-25T04:55:10.477Z,97862.84
2023-05-25T04:57:36.987Z,97867.13
2023-05-25T05:00:03.942Z,97864.63
2023-05-25T05:02:30.795Z,97869.72
2023-05-25T05:04:57.525Z,97873.13
2023-05-25T05:07:24.157Z,97865.47
2023-05-25T05:09:50.753Z,97872.28
2023-05-25T05:12:17.322Z,97875.69
2023-05-25T05:14:43.998Z,97875.69
2023-05-25T05:17:10.583Z,97866.34
2023-05-25T05:19:37.187Z,97866.34
2023-05-25T05:22:03.766Z,97874.91
2023-05-25T05:24:30.368Z,97864.69
2023-05-25T05:26:59.182Z,97874.00
2023-05-25T05:29:26.897Z,97881.69
2023-05-25T05:31:54.905Z,97885.13
2023-05-25T05:34:21.967Z,97884.22
2023-05-25T05:36:57.475Z,97890.22
2023-05-25T05:39:25.073Z,97890.22
2023-05-25T05:41:51.716Z,97895.31
2023-05-25T05:44:18.569Z,97892.78
2023-05-25T05:46:45.285Z,97897.88
2023-05-25T05:49:11.956Z,97905.53
2023-05-25T05:51:38.501Z,97900.50
2023-05-25T05:54:05.371Z,97908.94
2023-05-25T05:56:31.966Z,97896.75
2023-05-25T05:58:58.654Z,97898.66
2023-05-25T06:01:25.480Z,97907.16
2023-05-25T06:03:54.318Z,97900.25
2023-05-25T06:06:21.773Z,97905.47
2023-05-25T06:08:48.385Z,97907.22
2023-05-25T06:11:14.936Z,97903.84
2023-05-25T06:13:41.482Z,97897.06
2023-05-25T06:16:08.261Z,97896.19
2023-05-25T06:18:34.935Z,97894.50
2023-05-25T06:21:01.936Z,97903.03
2023-05-25T06:23:28.524Z,97897.06
2023-05-25T06:25:55.358Z,97903.91
2023-05-25T06:28:21.889Z,97909.00
2023-05-25T06:30:48.486Z,97903.91
2023-05-25T06:33:15.051Z,97901.34
2023-05-25T06:35:41.998Z,97899.56
2023-05-25T06:38:08.981Z,97903.84
2023-05-25T06:40:35.660Z,97914.94
2023-05-25T06:43:02.422Z,97907.28
2023-05-25T06:45:29.019Z,97908.16
2023-05-25T06:47:55.636Z,97917.50
2023-05-25T06:50:22.373Z,97913.25
2023-05-25T06:52:49.019Z,97914.13
2023-05-25T06:55:15.641Z,97907.28
2023-05-25T06:57:43.723Z,97912.31
2023-05-25T07:00:13.804Z,97916.59
2023-05-25T07:02:40.371Z,97920.88
2023-05-25T07:05:07.282Z,97917.44
2023-05-25T07:07:33.939Z,97914.00
2023-05-25T07:10:02.682Z,97913.16
2023-05-25T07:12:29.216Z,97915.75
2023-05-25T07:14:57.139Z,97918.38
2023-05-25T07:17:23.698Z,97915.81
2023-05-25T07:19:50.353Z,97921.72
2023-05-25T07:22:19.009Z,97921.72
2023-05-25T07:24:46.254Z,97928.59
2023-05-25T07:27:16.429Z,97923.47
2023-05-25T07:29:43.027Z,97920.94
2023-05-25T07:32:09.646Z,97920.03
2023-05-25T07:34:36.392Z,97928.59
2023-05-25T07:37:03.013Z,97927.69
2023-05-25T07:39:29.671Z,97927.69
2023-05-25T07:41:56.238Z,97937.03
2023-05-25T07:44:22.786Z,97933.63
2023-05-25T07:46:49.407Z,97936.25
2023-05-25T07:49:16.368Z,97930.25
2023-05-25T07:51:44.797Z,97937.09
2023-05-25T07:54:11.803Z,97942.19
2023-05-25T07:56:38.701Z,97945.66
2023-05-25T07:59:05.638Z,97947.31
2023-05-25T08:01:32.294Z,97943.03
2023-05-25T08:03:59.022Z,97947.31
2023-05-25T08:06:25.910Z,97947.19
2023-05-25T08:08:52.476Z,97947.25
2023-05-25T08:11:22.902Z,97941.34
2023-05-25T08:13:49.516Z,97944.69
2023-05-25T08:16:17.634Z,97947.25
2023-05-25T08:18:46.881Z,97946.47
2023-05-25T08:21:13.840Z,97951.56
2023-05-25T08:23:42.426Z,97954.91
2023-05-25T08:26:28.566Z,97949.88
2023-05-25T08:28:56.724Z,97947.25
2023-05-25T08:31:23.342Z,97961.78
2023-05-25T08:33:49.947Z,97964.34
2023-05-25T08:36:16.483Z,97956.69
2023-05-25T08:38:43.103Z,97950.56
2023-05-25T08:41:09.718Z,97959.16
2023-05-25T08:43:36.379Z,97970.31
2023-05-25T08:46:06.971Z,97965.19
2023-05-25T08:48:42.014Z,97966.00
2023-05-25T08:51:10.937Z,97966.91
2023-05-25T08:53:39.062Z,97965.19
2023-05-25T08:56:10.171Z,97966.06
2023-05-25T08:58:40.934Z,97966.91
2023-05-25T09:01:08.258Z,97965.19
2023-05-25T09:03:35.207Z,97945.59
2023-05-25T09:06:01.973Z,97966.91
2023-05-25T09:08:28.626Z,97964.28
2023-05-25T09:10:55.668Z,97963.47
2023-05-25T09:13:23.197Z,97955.84
2023-05-25T09:15:50.080Z,97965.19
2023-05-25T09:18:16.740Z,97956.69
2023-05-25T09:20:46.210Z,97962.63
2023-05-25T09:23:13.850Z,97956.63
2023-05-25T09:25:41.135Z,97953.25
2023-05-25T09:28:25.490Z,97950.56
2023-05-25T09:30:53.900Z,97953.31
2023-05-25T09:33:20.649Z,97954.97
2023-05-25T09:35:47.716Z,97959.28
2023-05-25T09:38:15.959Z,97965.25
2023-05-25T09:40:43.245Z,97961.84
2023-05-25T09:43:10.173Z,97964.41
2023-05-25T09:45:38.335Z,97966.06
2023-05-25T09:48:05.835Z,97967.81
2023-05-25T09:50:32.738Z,97960.91
2023-05-25T09:53:00.188Z,97970.31
2023-05-25T09:55:36.891Z,97969.44
2023-05-25T09:58:10.901Z,97959.22
2023-05-25T10:00:37.455Z,97965.13
2023-05-25T10:03:04.110Z,97965.13
2023-05-25T10:05:30.983Z,97974.50
2023-05-25T10:07:57.518Z,97967.69
2023-05-25T10:10:24.091Z,97960.91
2023-05-25T10:12:51.530Z,97965.19
2023-05-25T10:15:18.144Z,97966.91
2023-05-25T10:17:49.090Z,97974.63
2023-05-25T10:20:15.927Z,97965.13
2023-05-25T10:22:54.234Z,97962.50
2023-05-25T10:25:29.357Z,97964.34
2023-05-25T10:28:00.296Z,97964.22
2023-05-25T10:30:27.747Z,97966.91
2023-05-25T10:32:55.246Z,97959.22
2023-05-25T10:35:21.910Z,97972.00
2023-05-25T10:37:48.648Z,97966.00
2023-05-25T10:40:15.279Z,97968.63
2023-05-25T10:42:41.866Z,97963.53
2023-05-25T10:45:09.004Z,97967.75
2023-05-25T10:47:39.109Z,97967.75
2023-05-25T10:50:06.338Z,97960.97
2023-05-25T10:52:33.442Z,97951.56
2023-05-25T10:55:02.001Z,97963.53
2023-05-25T10:57:28.749Z,97956.69
2023-05-25T11:00:00.648Z,97962.63
2023-05-25T11:02:30.440Z,97959.22
2023-05-25T11:05:27.712Z,97957.53
2023-05-25T11:07:55.062Z,97961.78
2023-05-25T11:10:49.517Z,97950.75
2023-05-25T11:13:31.074Z,97947.31
2023-05-25T11:16:17.821Z,97952.41
2023-05-25T11:19:00.981Z,97950.75
2023-05-25T11:21:27.512Z,97945.66
2023-05-25T11:23:54.661Z,97945.66
2023-05-25T11:26:22.630Z,97941.34
2023-05-25T11:28:50.702Z,97948.19
2023-05-25T11:31:21.529Z,97945.66
2023-05-25T11:33:48.321Z,97939.66
2023-05-25T11:36:20.505Z,97944.75
2023-05-25T11:38:56.234Z,97942.16
2023-05-25T11:41:29.283Z,97940.47
2023-05-25T11:43:56.948Z,97930.25
2023-05-25T11:46:23.576Z,97929.38
2023-05-25T11:48:53.508Z,97934.47
2023-05-25T11:51:27.570Z,97918.19
2023-05-25T11:53:54.115Z,97931.13
2023-05-25T11:56:34.285Z,97934.53
2023-05-25T11:59:01.391Z,97902.56
2023-05-25T12:01:27.975Z,97922.66
2023-05-25T12:03:57.982Z,97929.44
2023-05-25T12:06:31.598Z,97923.47
2023-05-25T12:08:58.278Z,97915.81
2023-05-25T12:11:32.589Z,97922.66
2023-05-25T12:13:59.283Z,97920.09
2023-05-25T12:16:25.905Z,97913.94
2023-05-25T12:18:52.824Z,97920.81
2023-05-25T12:21:20.063Z,97917.38
2023-05-25T12:23:46.583Z,97901.81
2023-05-25T12:26:13.938Z,97920.97
2023-05-25T12:28:41.170Z,97920.97
2023-05-25T12:31:21.458Z,97917.53
2023-05-25T12:34:01.749Z,97915.00
2023-05-25T12:36:42.258Z,97911.56
2023-05-25T12:39:09.871Z,97911.56
2023-05-25T12:41:43.674Z,97910.78
2023-05-25T12:44:23.076Z,97906.50
2023-05-25T12:46:56.168Z,97904.78
2023-05-25T12:49:32.531Z,97901.34
2023-05-25T12:52:00.507Z,97915.00
2023-05-25T12:54:53.172Z,97905.66
2023-05-25T12:57:19.711Z,97912.44
2023-05-25T12:59:47.140Z,97917.53
2023-05-25T13:02:14.612Z,97917.53
2023-05-25T13:04:41.917Z,97915.88
2023-05-25T13:07:08.705Z,97920.97
2023-05-25T13:09:35.821Z,97920.09
2023-05-25T13:12:02.872Z,97915.00
2023-05-25T13:14:29.578Z,97910.78
2023-05-25T13:16:56.714Z,97912.50
2023-05-25T13:19:24.582Z,97900.59
2023-05-25T13:21:51.950Z,97905.72
2023-05-25T13:24:19.559Z,97901.41
2023-05-25T13:26:48.195Z,97902.22
2023-05-25T13:29:16.553Z,97895.44
2023-05-25T13:31:43.632Z,97888.56
2023-05-25T13:34:10.340Z,97888.56
2023-05-25T13:36:36.970Z,97887.72
2023-05-25T13:39:05.328Z,97881.78
2023-05-25T13:41:32.001Z,97884.34
2023-05-25T13:43:58.585Z,97881.78
2023-05-25T13:46:34.209Z,97886.91
2023-05-25T13:49:02.045Z,97887.78
2023-05-25T13:51:28.674Z,97885.22
2023-05-25T13:53:55.221Z,97872.47
2023-05-25T13:56:22.343Z,97883.53
2023-05-25T13:58:49.047Z,97872.47
2023-05-25T14:01:15.726Z,97877.56
2023-05-25T14:03:42.654Z,97879.25
2023-05-25T14:06:09.418Z,97851.69
2023-05-25T14:08:36.091Z,97880.97
2023-05-25T14:11:02.993Z,97881.78
2023-05-25T14:13:29.685Z,97882.69
2023-05-25T14:15:56.316Z,97871.56
2023-05-25T14:18:22.966Z,97840.41
2023-05-25T14:20:49.666Z,97863.91
2023-05-25T14:23:18.459Z,97858.81
2023-05-25T14:25:46.348Z,97863.03
2023-05-25T14:28:13.279Z,97875.00
2023-05-25T14:30:39.930Z,97869.09
2023-05-25T14:33:06.522Z,97867.34
2023-05-25T14:35:33.224Z,97870.75
2023-05-25T14:37:59.915Z,97869.09
2023-05-25T14:40:26.518Z,97867.34
2023-05-25T14:42:55.520Z,97869.09
2023-05-25T14:45:22.170Z,97865.66
2023-05-25T14:47:49.137Z,97865.66
2023-05-25T14:50:16.441Z,97858.81
2023-05-25T14:52:43.104Z,97854.59
2023-05-25T14:55:09.921Z,97857.13
2023-05-25T14:57:36.778Z,97849.47
2023-05-25T15:00:03.381Z,97866.53
2023-05-25T15:02:30.072Z,97857.97
2023-05-25T15:04:56.716Z,97864.78
2023-05-25T15:07:23.290Z,97864.84
2023-05-25T15:09:49.833Z,97867.34
2023-05-25T15:12:16.401Z,97871.63
2023-05-25T15:14:43.009Z,97877.56
2023-05-25T15:17:09.980Z,97869.84
2023-05-25T15:19:36.800Z,97868.13
2023-05-25T15:22:03.808Z,97865.59
2023-05-25T15:24:30.391Z,97856.25
2023-05-25T15:26:56.995Z,97859.63
2023-05-25T15:29:23.597Z,97859.63
2023-05-25T15:31:53.608Z,97850.25
2023-05-25T15:34:21.504Z,97851.16
2023-05-25T15:36:48.191Z,97846.91
2023-05-25T15:39:15.507Z,97846.91
2023-05-25T15:41:42.226Z,97849.47
2023-05-25T15:44:12.512Z,97858.88
2023-05-25T15:46:40.223Z,97855.44
2023-05-25T15:49:11.382Z,97854.59
2023-05-25T15:51:41.410Z,97845.22
2023-05-25T15:54:11.047Z,97857.97
2023-05-25T15:56:39.356Z,97854.59
2023-05-25T15:59:06.075Z,97851.19
2023-05-25T16:01:34.415Z,97850.31
2023-05-25T16:04:01.271Z,97854.59
2023-05-25T16:06:27.944Z,97851.19
2023-05-25T16:08:54.666Z,97840.06
2023-05-25T16:11:21.271Z,97846.91
2023-05-25T16:13:47.840Z,97851.19
2023-05-25T16:16:14.484Z,97846.09
2023-05-25T16:18:41.597Z,97846.09
2023-05-25T16:21:08.232Z,97850.31
2023-05-25T16:23:34.771Z,97852.88
2023-05-25T16:26:01.401Z,97848.66
2023-05-25T16:28:27.973Z,97846.09
2023-05-25T16:30:54.589Z,97842.66
2023-05-25T16:33:21.166Z,97845.22
2023-05-25T16:35:47.786Z,97851.19
2023-05-25T16:38:14.324Z,97848.66
2023-05-25T16:40:40.903Z,97852.03
2023-05-25T16:43:07.480Z,97846.09
2023-05-25T16:45:34.049Z,97854.59
2023-05-25T16:48:00.848Z,97852.03
2023-05-25T16:50:27.449Z,97853.75
2023-05-25T16:52:54.059Z,97844.38
2023-05-25T16:55:20.664Z,97846.91
2023-05-25T16:57:47.194Z,97851.16
2023-05-25T17:00:14.193Z,97850.31
2023-05-25T17:02:40.793Z,97851.19
2023-05-25T17:05:08.543Z,97847.75
2023-05-25T17:07:35.466Z,97857.13
2023-05-25T17:10:02.065Z,97854.59
2023-05-25T17:12:28.578Z,97851.97
2023-05-25T17:14:55.169Z,97847.72
2023-05-25T17:17:21.767Z,97854.53
2023-05-25T17:19:48.418Z,97855.38
2023-05-25T17:22:15.047Z,97853.69
2023-05-25T17:24:41.650Z,97854.59
2023-05-25T17:27:08.255Z,97849.47
2023-05-25T17:29:34.842Z,97852.03
2023-05-25T17:32:01.452Z,97859.69
2023-05-25T17:34:27.997Z,97857.06
2023-05-25T17:36:54.518Z,97855.44
2023-05-25T17:39:21.177Z,97855.44
2023-05-25T17:41:49.608Z,97855.44
2023-05-25T17:44:17.353Z,97844.13
2023-05-25T17:46:44.020Z,97863.16
2023-05-25T17:49:10.805Z,97861.41
2023-05-25T17:51:40.416Z,97856.31
2023-05-25T17:54:07.161Z,97858.88
2023-05-25T17:56:33.769Z,97866.53
2023-05-25T17:59:00.564Z,97863.97
2023-05-25T18:01:27.276Z,97867.41
2023-05-25T18:03:54.341Z,97873.31
2023-05-25T18:06:21.176Z,97864.84
2023-05-25T18:08:47.798Z,97866.53
2023-05-25T18:11:14.330Z,97861.41
2023-05-25T18:13:40.979Z,97857.13
2023-05-25T18:16:07.570Z,97864.84
2023-05-25T18:18:34.096Z,97871.63
2023-05-25T18:21:00.938Z,97874.19
2023-05-25T18:23:27.488Z,97874.19
2023-05-25T18:25:54.074Z,97881.84
2023-05-25T18:28:20.658Z,97877.44
2023-05-25T18:30:47.322Z,97878.41
2023-05-25T18:33:14.024Z,97887.84
2023-05-25T18:35:40.620Z,97888.69
2023-05-25T18:38:07.310Z,97886.97
2023-05-25T18:40:33.927Z,97887.84
2023-05-25T18:43:00.584Z,97889.50
2023-05-25T18:45:27.267Z,97897.19
2023-05-25T18:47:54.210Z,97894.63
2023-05-25T18:50:21.337Z,97899.72
2023-05-25T18:52:51.003Z,97902.28
2023-05-25T18:55:18.570Z,97898.06
2023-05-25T18:57:45.145Z,97902.28
2023-05-25T19:00:12.367Z,97897.13
2023-05-25T19:02:39.209Z,97909.88
2023-05-25T19:05:06.378Z,97909.00
2023-05-25T19:07:37.650Z,97909.88
2023-05-25T19:10:08.772Z,97909.81
2023-05-25T19:12:35.677Z,97915.88
2023-05-25T19:15:05.340Z,97920.97
2023-05-25T19:17:32.228Z,97921.03
2023-05-25T19:19:58.840Z,97919.28
2023-05-25T19:22:25.422Z,97920.16
2023-05-25T19:25:00.332Z,97919.28
2023-05-25T19:27:27.812Z,97931.25
2023-05-25T19:29:54.417Z,97920.16
2023-05-25T19:32:22.263Z,97925.25
2023-05-25T19:34:48.900Z,97936.38
2023-05-25T19:37:15.514Z,97932.09
2023-05-25T19:39:42.126Z,97935.47
2023-05-25T19:42:08.761Z,97933.81
2023-05-25T19:44:35.339Z,97934.66
2023-05-25T19:47:01.955Z,97938.03
2023-05-25T19:49:29.281Z,97940.59
2023-05-25T19:51:55.857Z,97938.91
2023-05-25T19:54:22.437Z,97936.38
2023-05-25T19:56:49.571Z,97939.78
2023-05-25T19:59:16.189Z,97941.47
2023-05-25T20:01:42.852Z,97942.31
2023-05-25T20:04:09.495Z,97940.59
2023-05-25T20:06:37.525Z,97952.53
2023-05-25T20:09:04.437Z,97960.19
2023-05-25T20:11:31.044Z,97956.81
2023-05-25T20:13:57.701Z,97956.81
2023-05-25T20:16:25.908Z,97949.94
2023-05-25T20:18:52.630Z,97959.34
2023-05-25T20:21:20.121Z,97951.69
2023-05-25T20:23:46.924Z,97955.91
2023-05-25T20:26:13.597Z,97949.13
2023-05-25T20:28:40.194Z,97959.34
2023-05-25T20:31:06.878Z,97955.91
2023-05-25T20:33:33.467Z,97957.59
2023-05-25T20:36:00.011Z,97959.34
2023-05-25T20:38:26.615Z,97966.19
2023-05-25T20:40:53.133Z,97970.41
2023-05-25T20:43:19.675Z,97964.47
2023-05-25T20:45:46.464Z,97974.69
2023-05-25T20:48:13.367Z,97967.81
2023-05-25T20:50:40.018Z,97978.09
2023-05-25T20:53:06.568Z,97977.22
2023-05-25T20:55:33.176Z,97966.06
2023-05-25T20:58:00.972Z,97972.06
2023-05-25T21:00:27.608Z,97972.00
2023-05-25T21:02:54.295Z,97982.22
2023-05-25T21:05:21.021Z,97983.88
2023-05-25T21:07:47.581Z,97981.34
2023-05-25T21:10:14.267Z,97984.78
2023-05-25T21:12:41.131Z,97981.34
2023-05-25T21:15:07.908Z,97987.31
2023-05-25T21:17:34.498Z,97991.63
2023-05-25T21:20:01.298Z,97989.06
2023-05-25T21:22:27.901Z,97995.84
2023-05-25T21:24:54.453Z,98001.84
2023-05-25T21:27:21.052Z,97998.38
2023-05-25T21:29:47.910Z,98003.50
2023-05-25T21:32:14.492Z,98000.94
2023-05-25T21:34:41.049Z,98000.94
2023-05-25T21:37:07.662Z,97998.34
2023-05-25T21:39:34.213Z,98003.44
2023-05-25T21:42:02.407Z,98006.00
2023-05-25T21:44:28.970Z,98004.31
2023-05-25T21:46:55.708Z,98006.00
2023-05-25T21:49:22.244Z,98014.53
2023-05-25T21:51:48.759Z,98013.66
2023-05-25T21:54:15.981Z,98013.66
2023-05-25T21:56:42.532Z,98013.66
2023-05-25T21:59:09.069Z,98017.09
2023-05-25T22:01:35.735Z,98020.53
2023-05-25T22:04:02.390Z,98018.75
2023-05-25T22:06:28.925Z,97991.00
2023-05-25T22:08:55.697Z,98017.91
2023-05-25T22:11:22.293Z,98018.75
2023-05-25T22:13:48.836Z,98008.53
2023-05-25T22:16:15.422Z,98010.31
2023-05-25T22:18:42.044Z,98011.97
2023-05-25T22:21:08.688Z,98004.31
2023-05-25T22:23:35.268Z,98006.00
2023-05-25T22:26:01.840Z,98011.09
2023-05-25T22:28:28.437Z,98008.53
2023-05-25T22:30:55.027Z,98006.88
2023-05-25T22:33:21.612Z,98007.69
2023-05-25T22:35:48.153Z,98011.09
2023-05-25T22:38:14.749Z,98000.47
2023-05-25T22:40:47.214Z,98015.41
2023-05-25T22:43:14.620Z,98022.19
2023-05-25T22:45:41.318Z,98010.25
2023-05-25T22:48:08.233Z,98018.69
2023-05-25T22:50:34.902Z,98016.97
2023-05-25T22:53:01.518Z,98022.97
2023-05-25T22:55:28.034Z,98019.59
2023-05-25T22:57:54.588Z,98013.53
2023-05-25T23:00:21.378Z,98006.56
2023-05-25T23:02:48.037Z,98010.19
2023-05-25T23:05:14.611Z,98020.47
2023-05-25T23:07:41.454Z,98026.38
2023-05-25T23:10:08.470Z,98029.81
2023-05-25T23:12:35.030Z,98018.69
2023-05-25T23:15:02.617Z,98019.59
2023-05-25T23:17:29.243Z,98028.13
2023-05-25T23:19:55.890Z,98029.81
2023-05-25T23:22:22.478Z,98022.97
2023-05-25T23:24:49.052Z,98025.50
2023-05-25T23:27:15.690Z,98026.38
2023-05-25T23:29:42.244Z,98031.47
2023-05-25T23:32:08.820Z,98029.81
2023-05-25T23:34:35.796Z,98023.81
2023-05-25T23:37:03.319Z,98031.47
2023-05-25T23:39:31.569Z,98028.84
2023-05-25T23:41:58.136Z,98022.84
2023-05-25T23:44:24.671Z,98025.50
2023-05-25T23:46:51.214Z,98031.47
2023-05-25T23:49:17.767Z,98031.47
2023-05-25T23:51:44.455Z,98023.75
2023-05-25T23:54:11.028Z,98026.31
2023-05-25T23:56:37.566Z,98029.75
2023-05-25T23:59:04.195Z,98033.19
